Time;durP1;ratioP1;P1;durP2;ratioP2;P2;SDS_P1;SDS_P2;PMS_P1;PMS_P2;Temp;Humidity;BMP_temperature;BMP_pressure;BME280_temperature;BME280_humidity;BME280_pressure;Samples;Min_cycle;Max_cycle;Signal;HPM_P1;HPM_P2
2022/04/14 05:57:48;;;;;;;41.20;28.70;;;13.40;99.90;;;;;;955897;23;21728;-91
2022/04/14 06:00:14;;;;;;;43.60;28.43;;;13.40;99.90;;;;;;4893578;29;20641;-91
2022/04/14 06:02:50;;;;;;;46.07;30.20;;;13.60;99.90;;;;;;4903834;29;20191;-91
2022/04/14 06:05:18;;;;;;;45.50;29.27;;;13.90;99.90;;;;;;4912157;29;20182;-92
2022/04/14 06:07:48;;;;;;;46.27;30.37;;;14.00;99.90;;;;;;4913972;29;20176;-92
2022/04/14 06:10:15;;;;;;;40.67;28.27;;;13.80;99.90;;;;;;4913544;29;20184;-92
2022/04/14 06:12:44;;;;;;;43.33;30.23;;;13.70;99.90;;;;;;4913938;29;20652;-92
2022/04/14 06:15:10;;;;;;;43.23;28.20;;;13.60;99.90;;;;;;4914096;29;20177;-92
2022/04/14 06:17:36;;;;;;;44.80;28.77;;;13.60;99.90;;;;;;4913887;29;20313;-91
2022/04/14 06:20:04;;;;;;;41.53;27.70;;;13.60;99.90;;;;;;4913012;29;20231;-92
2022/04/14 06:22:33;;;;;;;39.57;27.00;;;13.60;99.90;;;;;;4912923;29;20541;-94
2022/04/14 06:25:01;;;;;;;37.93;26.00;;;13.90;99.90;;;;;;4913175;29;20299;-92
2022/04/14 06:27:27;;;;;;;40.93;26.97;;;14.00;99.90;;;;;;4885388;29;20287;-92
2022/04/14 06:29:56;;;;;;;43.07;27.73;;;14.30;99.90;;;;;;4860681;29;20269;-92
2022/04/14 06:32:22;;;;;;;38.53;25.93;;;14.20;99.90;;;;;;4873572;29;20201;-91
2022/04/14 06:34:48;;;;;;;36.53;24.93;;;14.00;99.90;;;;;;4860716;29;20178;-92
2022/04/14 06:37:13;;;;;;;36.50;25.87;;;14.00;99.90;;;;;;4860763;29;20674;-92
2022/04/14 06:39:42;;;;;;;37.77;24.90;;;14.20;99.90;;;;;;4860477;29;20182;-92
2022/04/14 06:42:09;;;;;;;35.33;25.07;;;14.10;99.90;;;;;;4860263;29;20205;-94
2022/04/14 06:44:37;;;;;;;33.30;23.57;;;14.10;99.90;;;;;;4860264;29;20176;-92
2022/04/14 06:47:13;;;;;;;35.20;23.20;;;14.20;99.90;;;;;;4861537;29;20197;-94
2022/04/14 06:49:41;;;;;;;29.93;21.60;;;14.80;99.90;;;;;;4860621;29;20174;-91
2022/04/14 06:52:09;;;;;;;30.50;22.07;;;15.10;99.90;;;;;;4861054;29;20222;-95
2022/04/14 06:54:35;;;;;;;33.40;21.27;;;15.10;99.90;;;;;;4861887;29;20228;-92
2022/04/14 06:57:04;;;;;;;29.23;20.47;;;15.30;99.90;;;;;;4861786;29;20209;-93
2022/04/14 06:59:29;;;;;;;26.83;18.83;;;15.40;99.90;;;;;;4866686;29;20186;-94
2022/04/14 07:01:55;;;;;;;30.73;18.70;;;15.30;99.90;;;;;;4873436;29;20184;-92
2022/04/14 07:04:21;;;;;;;25.50;18.57;;;15.40;99.90;;;;;;4879167;29;20179;-91
2022/04/14 07:06:49;;;;;;;25.17;19.13;;;15.20;99.90;;;;;;4877338;29;20264;-93
2022/04/14 07:09:18;;;;;;;24.50;18.47;;;15.20;99.90;;;;;;4880319;29;20185;-92
2022/04/14 07:12:02;;;;;;;22.77;17.07;;;15.10;99.90;;;;;;4879152;29;20304;-92
2022/04/14 07:14:38;;;;;;;25.33;18.33;;;15.10;99.90;;;;;;4875065;29;20184;-91
2022/04/14 07:17:07;;;;;;;27.83;18.50;;;15.20;99.90;;;;;;4887465;29;20596;-94
2022/04/14 07:19:32;;;;;;;29.23;18.80;;;15.10;99.90;;;;;;4879115;29;20177;-93
2022/04/14 07:22:10;;;;;;;27.27;17.77;;;15.00;99.90;;;;;;4878318;29;20173;-94
2022/04/14 07:24:38;;;;;;;25.23;16.97;;;14.90;99.90;;;;;;4893806;29;20216;-92
2022/04/14 07:27:10;;;;;;;23.20;17.53;;;14.90;99.90;;;;;;4893830;29;20204;-92
2022/04/14 07:29:43;;;;;;;21.13;16.13;;;14.90;99.90;;;;;;4893735;29;20658;-92
2022/04/14 07:32:09;;;;;;;23.13;15.97;;;14.90;99.90;;;;;;4893393;29;20231;-92
2022/04/14 07:34:37;;;;;;;23.13;15.97;;;14.80;99.90;;;;;;4896343;29;20670;-92
2022/04/14 07:37:03;;;;;;;31.13;16.90;;;15.00;99.90;;;;;;4882148;29;20628;-92
2022/04/14 07:39:34;;;;;;;22.40;15.93;;;14.90;99.90;;;;;;4881304;29;20193;-92
2022/04/14 07:42:02;;;;;;;25.23;16.10;;;15.00;99.90;;;;;;4881284;29;20179;-92
2022/04/14 07:44:27;;;;;;;21.93;14.97;;;15.10;99.90;;;;;;4881993;29;20518;-92
2022/04/14 07:46:55;;;;;;;21.93;16.83;;;15.00;99.90;;;;;;4865660;29;20186;-94
2022/04/14 07:49:21;;;;;;;22.30;16.03;;;15.10;99.90;;;;;;4862970;29;20245;-92
2022/04/14 07:51:47;;;;;;;25.57;15.77;;;15.00;99.90;;;;;;4866080;29;20218;-93
2022/04/14 07:54:15;;;;;;;22.03;16.67;;;15.00;99.90;;;;;;4862796;29;20277;-92
2022/04/14 07:56:44;;;;;;;24.90;16.07;;;15.00;99.90;;;;;;4873884;29;20188;-93
2022/04/14 07:59:10;;;;;;;21.20;15.03;;;15.10;99.90;;;;;;4893391;29;20287;-92
2022/04/14 08:01:41;;;;;;;22.73;15.77;;;15.20;99.90;;;;;;4867313;29;20632;-92
2022/04/14 08:04:17;;;;;;;22.90;15.47;;;15.30;99.90;;;;;;4863924;29;20278;-94
2022/04/14 08:06:48;;;;;;;22.00;16.23;;;15.30;99.90;;;;;;4863311;29;20177;-92
2022/04/14 08:09:21;;;;;;;21.37;16.20;;;15.50;99.90;;;;;;4862261;29;20213;-91
2022/04/14 08:11:47;;;;;;;21.53;16.30;;;15.40;99.90;;;;;;4868233;29;20583;-94
2022/04/14 08:14:13;;;;;;;20.13;15.20;;;15.50;99.90;;;;;;4872663;29;20168;-94
2022/04/14 08:16:41;;;;;;;21.50;16.23;;;15.40;99.90;;;;;;4881540;29;20185;-91
2022/04/14 08:19:10;;;;;;;18.97;14.37;;;15.40;99.90;;;;;;4878679;29;20181;-92
2022/04/14 08:21:40;;;;;;;19.43;14.43;;;15.50;99.90;;;;;;4869968;29;20191;-92
2022/04/14 08:24:06;;;;;;;26.63;15.73;;;15.50;99.90;;;;;;4877707;29;20550;-92
2022/04/14 08:26:32;;;;;;;21.00;14.13;;;15.50;99.90;;;;;;4869224;29;20282;-91
2022/04/14 08:29:00;;;;;;;24.50;15.47;;;15.50;99.90;;;;;;4867187;29;20264;-92
2022/04/14 08:31:27;;;;;;;21.90;14.13;;;15.50;99.90;;;;;;4866896;29;20214;-91
2022/04/14 08:33:53;;;;;;;16.83;12.87;;;15.50;99.90;;;;;;4862725;29;20185;-94
2022/04/14 08:36:25;;;;;;;19.27;13.90;;;15.70;99.90;;;;;;4862355;29;20245;-92
2022/04/14 08:38:53;;;;;;;19.47;13.13;;;15.80;99.90;;;;;;4862182;29;20200;-93
2022/04/14 08:41:41;;;;;;;18.73;13.13;;;15.90;99.90;;;;;;4862115;29;20184;-92
2022/04/14 08:44:10;;;;;;;21.37;12.30;;;16.00;99.90;;;;;;4861403;29;20281;-91
2022/04/14 08:46:41;;;;;;;17.07;11.13;;;16.00;99.90;;;;;;4865307;29;20206;-92
2022/04/14 08:49:12;;;;;;;17.13;14.13;;;16.00;99.90;;;;;;4874823;29;20168;-91
2022/04/14 08:51:40;;;;;;;17.37;10.57;;;15.90;99.90;;;;;;4865737;29;20292;-91
2022/04/14 08:54:08;;;;;;;17.97;12.30;;;15.90;99.90;;;;;;4868657;29;20174;-92
2022/04/14 08:56:35;;;;;;;15.47;10.83;;;15.80;99.90;;;;;;4880827;29;20188;-91
2022/04/14 08:59:01;;;;;;;17.37;11.20;;;15.80;99.90;;;;;;4880308;29;20186;-93
2022/04/14 09:01:35;;;;;;;15.63;9.50;;;15.90;99.90;;;;;;4879821;29;20243;-91
2022/04/14 09:04:04;;;;;;;16.97;10.47;;;15.90;99.90;;;;;;4875469;29;20169;-94
2022/04/14 09:06:39;;;;;;;15.73;10.07;;;16.00;99.90;;;;;;4871617;29;20185;-93
2022/04/14 09:09:09;;;;;;;13.47;9.27;;;16.10;99.90;;;;;;4871903;29;20575;-91
2022/04/14 09:11:46;;;;;;;12.60;8.20;;;16.10;99.90;;;;;;4870369;29;20221;-93
2022/04/14 09:14:15;;;;;;;14.20;9.20;;;16.20;99.90;;;;;;4879191;29;20166;-91
2022/04/14 09:16:51;;;;;;;13.67;8.93;;;16.30;99.90;;;;;;4888192;29;20181;-93
2022/04/14 09:19:17;;;;;;;13.33;8.40;;;16.40;99.90;;;;;;4897461;29;20169;-94
2022/04/14 09:22:07;;;;;;;13.63;8.40;;;16.40;99.90;;;;;;4898414;29;20674;-91
2022/04/14 09:24:53;;;;;;;12.70;7.87;;;16.50;99.90;;;;;;4890902;29;20550;-92
2022/04/14 09:27:26;;;;;;;15.13;9.83;;;16.60;99.90;;;;;;4885512;29;20306;-92
2022/04/14 09:29:54;;;;;;;14.40;9.40;;;16.60;99.90;;;;;;4888643;29;20183;-93
2022/04/14 09:32:51;;;;;;;11.27;6.50;;;16.80;99.90;;;;;;4877196;29;20217;-93
2022/04/14 09:35:46;;;;;;;11.17;6.40;;;16.70;99.90;;;;;;4880783;29;20196;-92
2022/04/14 09:38:21;;;;;;;7.73;5.03;;;16.70;99.90;;;;;;4884794;29;20196;-92
2022/04/14 09:40:55;;;;;;;11.03;4.77;;;16.80;99.90;;;;;;4884277;29;20185;-93
2022/04/14 09:43:38;;;;;;;8.47;4.27;;;16.80;99.90;;;;;;4884314;29;20188;-93
2022/04/14 09:46:23;;;;;;;7.90;4.60;;;16.90;99.90;;;;;;4880077;29;20498;-94
2022/04/14 09:49:15;;;;;;;7.13;5.00;;;17.10;99.90;;;;;;4879700;29;20176;-91
2022/04/14 09:52:20;;;;;;;;;;;;;;;;;;;;;
2022/04/14 09:55:26;;;;;;;2.93;1.87;;;17.20;99.90;;;;;;4876897;29;20170;-94
2022/04/14 09:58:23;;;;;;;;;;;;;;;;;;;;;
2022/04/14 10:01:50;;;;;;;7.77;3.00;;;17.30;99.90;;;;;;4864102;29;20187;-93
2022/04/14 10:04:58;;;;;;;;;;;;;;;;;;;;;
2022/04/14 10:08:27;;;;;;;;;;;;;;;;;;;;;
2022/04/14 12:08:35;;;;;;;10.00;4.77;;;22.90;90.30;;;;;;5004882;23;20382;-94
2022/04/14 12:11:14;;;;;;;7.53;4.37;;;22.60;90.60;;;;;;5002561;28;20205;-96
2022/04/14 12:13:40;;;;;;;6.60;4.37;;;23.00;90.80;;;;;;5003680;28;20629;-96
2022/04/14 12:16:13;;;;;;;10.00;4.67;;;23.50;90.20;;;;;;5004113;28;20179;-95
2022/04/14 12:18:47;;;;;;;8.43;3.97;;;24.80;87.80;;;;;;5003648;28;20184;-96
2022/04/14 12:21:20;;;;;;;6.40;3.40;;;25.60;85.80;;;;;;5002637;28;20177;-95
2022/04/14 12:23:51;;;;;;;8.30;4.63;;;26.50;82.60;;;;;;5010075;28;20174;-96
2022/04/14 12:26:17;;;;;;;6.33;3.70;;;27.40;81.60;;;;;;5012187;28;20189;-94
2022/04/14 12:28:45;;;;;;;8.07;3.47;;;28.30;78.30;;;;;;5011485;28;20169;-96
2022/04/14 12:31:20;;;;;;;8.00;3.58;;;29.40;76.20;;;;;;4994858;28;20201;-96
2022/04/14 12:33:58;;;;;;;5.68;3.40;;;30.40;75.10;;;;;;5010513;28;20168;-96
2022/04/14 12:36:36;;;;;;;10.32;4.50;;;31.40;72.80;;;;;;5009369;28;20201;-95
2022/04/14 12:39:16;;;;;;;6.30;4.65;;;31.30;72.40;;;;;;5008680;28;20305;-96
2022/04/14 12:41:41;;;;;;;8.00;4.82;;;31.10;70.50;;;;;;5015186;28;20240;-95
2022/04/14 12:44:20;;;;;;;8.60;5.20;;;30.30;71.70;;;;;;5021789;28;20165;-95
2022/04/14 12:46:51;;;;;;;5.37;3.90;;;29.40;72.20;;;;;;5015024;28;20280;-95
2022/04/14 12:49:29;;;;;;;8.70;3.50;;;28.10;72.60;;;;;;5015501;28;20197;-96
2022/04/14 12:51:56;;;;;;;10.00;4.67;;;27.00;74.10;;;;;;5011503;28;20200;-95
2022/04/14 12:54:23;;;;;;;9.10;4.90;;;26.20;76.00;;;;;;5008912;28;20240;-96
2022/04/14 12:57:07;;;;;;;9.20;6.13;;;25.40;77.30;;;;;;5007895;28;20177;-95
2022/04/14 12:59:34;;;;;;;12.17;6.20;;;24.50;80.80;;;;;;5007578;28;20228;-96
2022/04/14 13:02:06;;;;;;;10.80;6.03;;;23.70;83.20;;;;;;5007164;28;20170;-96
2022/04/14 13:04:35;;;;;;;11.30;5.97;;;23.30;84.50;;;;;;5008951;28;20172;-96
2022/04/14 13:07:08;;;;;;;8.73;5.70;;;23.00;84.80;;;;;;5013895;28;20204;-96
2022/04/14 13:09:39;;;;;;;11.57;6.87;;;22.80;85.00;;;;;;5010901;28;20196;-96
2022/04/14 13:12:07;;;;;;;15.17;7.83;;;22.30;85.80;;;;;;5009306;28;20216;-95
2022/04/14 13:14:34;;;;;;;12.33;7.50;;;21.90;88.10;;;;;;4992522;28;20228;-96
2022/04/14 13:17:01;;;;;;;10.87;6.33;;;21.60;89.20;;;;;;5010700;28;20174;-96
2022/04/14 13:19:28;;;;;;;12.80;7.80;;;21.50;89.40;;;;;;5011211;28;20169;-96
2022/04/14 13:21:54;;;;;;;11.10;6.87;;;21.60;90.20;;;;;;5011941;28;20236;-96
2022/04/14 13:24:21;;;;;;;10.00;6.30;;;21.80;90.30;;;;;;5014472;28;20179;-96
2022/04/14 13:26:47;;;;;;;14.70;6.63;;;21.90;88.70;;;;;;5017193;28;20212;-95
2022/04/14 13:29:13;;;;;;;10.90;8.00;;;22.20;88.50;;;;;;5017146;28;20264;-96
2022/04/14 13:31:40;;;;;;;10.73;6.90;;;22.40;88.00;;;;;;5014849;28;20204;-95
2022/04/14 13:34:09;;;;;;;13.70;7.63;;;22.60;87.80;;;;;;5016325;28;20224;-95
2022/04/14 13:36:36;;;;;;;11.37;6.77;;;23.00;87.30;;;;;;5017464;28;20176;-92
2022/04/14 13:39:04;;;;;;;11.87;7.00;;;23.30;85.50;;;;;;5036273;28;20185;-96
2022/04/14 13:41:33;;;;;;;10.10;6.23;;;23.70;84.30;;;;;;5019413;28;20259;-96
2022/04/14 13:43:59;;;;;;;14.90;9.23;;;23.90;82.80;;;;;;5018958;28;20221;-92
2022/04/14 13:46:28;;;;;;;10.07;7.73;;;24.20;86.70;;;;;;5020829;28;20244;-89
2022/04/14 13:48:53;;;;;;;13.53;8.90;;;24.50;87.20;;;;;;5017037;28;20193;-95
2022/04/14 13:51:19;;;;;;;12.77;8.53;;;24.50;87.60;;;;;;5016936;28;20201;-96
2022/04/14 13:53:45;;;;;;;11.60;8.17;;;24.40;87.50;;;;;;5018707;28;20157;-89
2022/04/14 13:56:11;;;;;;;15.03;8.93;;;24.30;88.10;;;;;;5020913;28;20181;-93
2022/04/14 13:58:37;;;;;;;19.77;9.17;;;24.10;88.20;;;;;;5020518;28;20166;-94
2022/04/14 14:01:05;;;;;;;16.47;9.07;;;24.20;87.70;;;;;;5019817;28;20255;-91
2022/04/14 14:03:32;;;;;;;12.80;8.60;;;24.00;86.80;;;;;;5021505;28;20176;-92
2022/04/14 14:05:59;;;;;;;11.23;8.93;;;23.70;86.80;;;;;;5021998;28;20192;-89
2022/04/14 14:08:26;;;;;;;12.70;8.63;;;23.30;87.40;;;;;;5005384;28;20244;-91
2022/04/14 14:10:52;;;;;;;12.63;8.70;;;23.20;87.50;;;;;;5005292;28;20264;-91
2022/04/14 14:13:19;;;;;;;15.00;9.30;;;23.30;87.30;;;;;;5021271;28;20172;-91
2022/04/14 14:15:45;;;;;;;14.57;9.13;;;23.70;87.00;;;;;;5003580;28;20173;-91
2022/04/14 14:18:11;;;;;;;12.93;9.40;;;24.30;85.90;;;;;;4999601;28;20185;-93
2022/04/14 14:20:39;;;;;;;15.60;9.00;;;25.20;84.40;;;;;;5018359;28;20180;-93
2022/04/14 14:23:05;;;;;;;12.27;8.93;;;26.20;82.20;;;;;;5020218;28;20201;-91
2022/04/14 14:25:36;;;;;;;12.87;8.13;;;27.00;81.00;;;;;;5020288;28;20197;-92
2022/04/14 14:28:06;;;;;;;12.47;9.27;;;27.20;80.70;;;;;;5019351;28;20165;-95
2022/04/14 14:30:37;;;;;;;13.47;8.83;;;27.30;80.20;;;;;;5000302;28;20578;-95
2022/04/14 14:33:03;;;;;;;11.93;8.77;;;27.50;78.40;;;;;;5000016;28;20176;-94
2022/04/14 14:35:49;;;;;;;13.43;9.53;;;26.90;79.00;;;;;;5016890;28;20149;-94
2022/04/14 14:38:15;;;;;;;11.67;8.57;;;26.80;79.00;;;;;;5014676;28;20184;-94
2022/04/14 14:40:45;;;;;;;10.93;8.47;;;26.40;79.60;;;;;;5013799;28;20204;-96
2022/04/14 14:43:11;;;;;;;13.80;8.57;;;26.40;80.20;;;;;;5012321;28;20188;-96
2022/04/14 14:45:39;;;;;;;11.40;8.00;;;26.80;80.00;;;;;;5015114;28;20173;-95
2022/04/14 14:48:08;;;;;;;11.00;7.17;;;27.40;78.10;;;;;;5012264;28;20165;-96
2022/04/14 14:50:54;;;;;;;10.63;7.40;;;27.60;77.70;;;;;;5010324;28;20269;-95
2022/04/14 14:53:40;;;;;;;13.30;7.73;;;27.40;77.40;;;;;;4998452;28;20157;-93
2022/04/14 14:56:29;;;;;;;11.40;7.67;;;27.30;77.80;;;;;;5020555;28;20161;-91
2022/04/14 14:59:16;;;;;;;12.80;7.73;;;26.90;78.20;;;;;;5025739;28;20185;-89
2022/04/14 15:01:46;;;;;;;11.83;8.60;;;26.80;79.10;;;;;;5014573;28;20263;-94
2022/04/14 15:04:13;;;;;;;13.37;7.53;;;26.80;77.70;;;;;;5015573;28;20162;-94
2022/04/14 15:06:47;;;;;;;12.77;7.43;;;26.60;78.10;;;;;;5012387;28;20169;-96
2022/04/14 15:09:13;;;;;;;11.80;8.03;;;26.80;78.20;;;;;;4997162;28;20189;-96
2022/04/14 15:11:43;;;;;;;12.40;7.83;;;27.10;77.60;;;;;;5013348;28;20200;-93
2022/04/14 15:14:09;;;;;;;12.93;7.23;;;26.70;77.40;;;;;;5011960;28;20176;-96
2022/04/14 15:16:35;;;;;;;11.20;6.93;;;26.10;78.90;;;;;;5011084;28;20181;-96
2022/04/14 15:19:02;;;;;;;10.23;7.00;;;25.70;80.50;;;;;;5012090;28;20214;-96
2022/04/14 15:21:28;;;;;;;11.37;7.17;;;25.30;81.20;;;;;;5011913;28;20166;-91
2022/04/14 15:23:57;;;;;;;10.70;6.73;;;24.90;81.70;;;;;;4996809;28;20581;-95
2022/04/14 15:26:23;;;;;;;9.17;6.03;;;24.60;82.30;;;;;;5014147;28;20192;-95
2022/04/14 15:28:52;;;;;;;9.80;6.47;;;24.40;82.90;;;;;;5016264;28;20181;-90
2022/04/14 15:31:22;;;;;;;11.60;6.23;;;24.10;83.60;;;;;;5002125;28;20201;-93
2022/04/14 15:33:48;;;;;;;10.03;6.83;;;24.10;83.60;;;;;;4984884;28;20165;-96
2022/04/14 15:36:14;;;;;;;10.80;6.00;;;24.00;84.50;;;;;;5015784;28;20229;-91
2022/04/14 15:38:40;;;;;;;12.07;6.23;;;24.10;83.40;;;;;;5019586;28;20160;-90
2022/04/14 15:41:07;;;;;;;10.20;6.17;;;24.10;83.20;;;;;;5021633;28;20169;-89
2022/04/14 15:43:35;;;;;;;11.67;7.37;;;24.00;83.20;;;;;;5021550;28;20150;-90
2022/04/14 15:46:07;;;;;;;10.73;6.80;;;23.70;84.20;;;;;;5005585;28;20158;-92
2022/04/14 15:48:55;;;;;;;12.17;6.93;;;23.90;84.30;;;;;;5004941;28;20191;-91
2022/04/14 15:51:44;;;;;;;11.93;7.03;;;23.90;84.20;;;;;;5036751;28;20217;-90
2022/04/14 15:54:11;;;;;;;10.53;6.67;;;24.00;83.70;;;;;;5032891;28;20164;-96
2022/04/14 15:56:37;;;;;;;9.50;4.40;;;24.00;84.20;;;;;;5019265;28;20154;-93
2022/04/14 15:59:05;;;;;;;7.63;4.20;;;24.10;83.00;;;;;;5020326;28;20237;-93
2022/04/14 16:01:31;;;;;;;9.30;3.73;;;24.00;83.30;;;;;;5019982;28;20237;-90
2022/04/14 16:03:57;;;;;;;6.60;4.17;;;24.10;83.50;;;;;;5004325;28;20169;-95
2022/04/14 16:06:24;;;;;;;8.00;4.27;;;24.00;83.10;;;;;;5021089;28;20180;-92
2022/04/14 16:09:13;;;;;;;8.67;4.53;;;24.00;82.80;;;;;;5004438;28;20189;-93
2022/04/14 16:14:26;;;;;;;7.03;3.33;;;23.90;83.00;;;;;;5037178;28;20219;-94
2022/04/14 16:17:12;;;;;;;7.50;3.70;;;23.80;83.20;;;;;;5003567;28;20170;-92
2022/04/14 16:19:38;;;;;;;7.90;3.70;;;23.70;83.50;;;;;;5007449;28;20194;-93
2022/04/14 16:22:05;;;;;;;5.10;3.13;;;23.70;82.80;;;;;;5020677;28;20252;-91
2022/04/14 16:24:31;;;;;;;9.10;3.63;;;23.80;83.00;;;;;;5003655;28;20181;-95
2022/04/14 16:26:56;;;;;;;7.77;3.90;;;23.70;83.00;;;;;;4987541;28;20272;-92
2022/04/14 16:29:22;;;;;;;7.63;3.70;;;23.50;83.30;;;;;;5003120;28;20556;-92
2022/04/14 16:31:55;;;;;;;7.03;3.43;;;23.40;83.20;;;;;;5005005;28;20256;-93
2022/04/14 16:34:44;;;;;;;7.03;3.10;;;23.20;83.40;;;;;;5039025;28;20165;-91
2022/04/14 16:37:11;;;;;;;6.87;3.10;;;23.10;83.40;;;;;;5019230;28;20162;-95
2022/04/14 16:40:29;;;;;;;7.83;3.20;;;22.90;83.50;;;;;;5037234;28;20145;-91
2022/04/14 16:42:55;;;;;;;7.43;3.20;;;23.00;83.50;;;;;;5019734;28;20280;-93
2022/04/14 16:45:24;;;;;;;7.40;2.67;;;22.80;83.90;;;;;;5002225;28;20176;-95
2022/04/14 16:47:51;;;;;;;7.57;3.13;;;22.70;84.50;;;;;;5019254;28;20169;-90
2022/04/14 16:50:34;;;;;;;8.20;3.63;;;22.60;84.50;;;;;;5020441;28;20171;-95
2022/04/14 16:53:21;;;;;;;6.03;3.20;;;22.40;85.00;;;;;;5025793;28;20216;-93
2022/04/14 16:55:50;;;;;;;7.77;3.60;;;22.20;86.00;;;;;;5020705;28;20163;-93
2022/04/14 16:58:16;;;;;;;10.37;4.40;;;22.00;86.80;;;;;;5038054;28;20180;-92
2022/04/14 17:00:42;;;;;;;11.63;4.40;;;21.90;87.80;;;;;;5004928;28;20185;-91
2022/04/14 17:03:10;;;;;;;10.07;4.23;;;21.70;88.20;;;;;;5022186;28;20169;-89
2022/04/14 17:05:35;;;;;;;8.00;4.30;;;21.90;88.20;;;;;;5021187;28;20173;-96
2022/04/14 17:08:01;;;;;;;9.10;4.57;;;21.80;88.70;;;;;;5019591;28;20174;-93
2022/04/14 17:10:28;;;;;;;11.40;5.47;;;22.00;88.50;;;;;;5002790;28;20181;-93
2022/04/14 17:13:12;;;;;;;8.87;4.97;;;21.90;88.80;;;;;;5035965;28;20243;-93
2022/04/14 17:15:41;;;;;;;9.67;4.67;;;21.90;90.20;;;;;;5019884;28;20180;-94
2022/04/14 17:18:08;;;;;;;7.90;4.70;;;21.90;90.20;;;;;;5018814;28;20173;-94
2022/04/14 17:20:36;;;;;;;11.33;5.33;;;21.80;89.80;;;;;;5019995;28;20170;-91
2022/04/14 17:25:47;;;;;;;8.10;4.77;;;21.80;89.20;;;;;;5035648;28;20200;-90
2022/04/14 17:28:14;;;;;;;9.33;4.50;;;21.70;89.50;;;;;;5003823;28;20196;-92
2022/04/14 17:31:00;;;;;;;11.57;5.70;;;21.80;89.30;;;;;;5020154;28;20216;-90
2022/04/14 17:33:41;;;;;;;11.13;5.43;;;21.80;89.60;;;;;;5020422;28;20333;-87
2022/04/14 17:36:16;;;;;;;12.90;4.93;;;21.80;90.00;;;;;;5039116;28;20225;-91
2022/04/14 17:38:51;;;;;;;8.67;4.83;;;21.80;90.10;;;;;;5036388;28;20169;-90
2022/04/14 17:41:56;;;;;;;9.07;5.17;;;21.60;90.30;;;;;;5037335;28;20174;-91
2022/04/14 17:44:22;;;;;;;12.53;5.30;;;21.70;90.00;;;;;;5007620;28;20230;-93
2022/04/14 17:46:56;;;;;;;11.13;5.03;;;21.70;90.10;;;;;;5037860;28;20165;-88
2022/04/14 17:49:23;;;;;;;7.40;4.40;;;21.60;90.30;;;;;;5020139;28;20159;-91
2022/04/14 17:52:14;;;;;;;7.17;3.97;;;21.60;89.70;;;;;;5036937;28;20215;-93
2022/04/14 17:54:41;;;;;;;9.53;4.13;;;21.40;90.10;;;;;;5019864;28;20164;-88
2022/04/14 17:57:06;;;;;;;7.83;4.00;;;21.30;89.70;;;;;;5036478;28;20180;-93
2022/04/14 17:59:32;;;;;;;9.03;3.97;;;21.20;90.10;;;;;;5021934;28;20180;-88
2022/04/14 18:01:59;;;;;;;7.43;3.97;;;21.10;90.30;;;;;;5015085;28;20176;-88
2022/04/14 18:04:28;;;;;;;11.20;4.27;;;20.80;90.80;;;;;;5000208;28;20165;-94
2022/04/14 18:06:56;;;;;;;10.10;4.13;;;20.80;90.80;;;;;;5031671;28;20168;-95
2022/04/14 18:09:24;;;;;;;8.70;3.87;;;20.80;90.90;;;;;;5010446;28;20220;-96
2022/04/14 18:11:52;;;;;;;8.30;4.20;;;20.50;91.40;;;;;;5037226;28;20670;-89
2022/04/14 18:14:38;;;;;;;8.27;4.70;;;20.40;91.60;;;;;;5020416;28;20214;-90
2022/04/14 18:17:03;;;;;;;8.60;4.50;;;20.20;92.10;;;;;;5015273;28;20165;-96
2022/04/14 18:19:29;;;;;;;8.10;4.67;;;20.30;92.00;;;;;;5012364;28;20204;-95
2022/04/14 18:21:54;;;;;;;10.20;4.40;;;20.20;92.30;;;;;;4995647;28;20185;-94
2022/04/14 18:24:21;;;;;;;9.60;5.03;;;20.10;92.60;;;;;;5013081;28;20200;-96
2022/04/14 18:26:47;;;;;;;11.57;4.80;;;20.10;92.60;;;;;;5008982;28;20223;-94
2022/04/14 18:29:12;;;;;;;10.27;5.40;;;20.00;92.90;;;;;;5016070;28;20172;-96
2022/04/14 18:32:03;;;;;;;14.00;4.93;;;19.70;93.30;;;;;;5004017;28;20195;-87
2022/04/14 18:34:50;;;;;;;9.47;5.13;;;19.80;93.40;;;;;;5035474;28;20207;-88
2022/04/14 18:37:35;;;;;;;13.07;5.77;;;19.50;94.00;;;;;;5035867;28;20165;-92
2022/04/14 18:40:17;;;;;;;8.90;5.37;;;19.50;94.10;;;;;;5015420;28;20244;-95
2022/04/14 18:42:46;;;;;;;9.37;6.00;;;19.50;94.00;;;;;;5030116;28;20205;-94
2022/04/14 18:45:12;;;;;;;9.63;5.20;;;19.50;94.10;;;;;;5008668;28;20239;-96
2022/04/14 18:47:43;;;;;;;13.33;5.00;;;19.30;94.50;;;;;;4994341;28;20173;-95
2022/04/14 18:50:28;;;;;;;9.97;5.80;;;19.20;95.30;;;;;;5021695;28;20186;-96
2022/04/14 18:52:54;;;;;;;12.63;6.20;;;19.10;95.10;;;;;;5007715;28;20213;-96
2022/04/14 18:55:21;;;;;;;12.87;5.83;;;18.90;95.60;;;;;;5008574;28;20167;-95
2022/04/14 18:57:46;;;;;;;12.37;5.80;;;18.90;95.60;;;;;;5006017;28;20176;-95
2022/04/14 19:00:14;;;;;;;10.50;5.50;;;19.00;95.40;;;;;;5006668;28;20326;-94
2022/04/14 19:02:55;;;;;;;15.03;5.97;;;19.10;95.30;;;;;;5008619;28;20173;-95
2022/04/14 19:05:23;;;;;;;11.87;5.23;;;18.80;95.70;;;;;;5010661;28;20232;-95
2022/04/14 19:08:26;;;;;;;8.17;5.57;;;18.60;96.40;;;;;;4996027;28;20183;-94
2022/04/14 19:10:53;;;;;;;12.97;6.40;;;18.50;96.30;;;;;;5016303;28;20255;-94
2022/04/14 19:13:19;;;;;;;12.33;6.20;;;18.40;96.70;;;;;;5010775;28;20172;-96
2022/04/14 19:15:50;;;;;;;14.50;6.00;;;18.30;96.70;;;;;;4995081;28;20186;-94
2022/04/14 19:18:21;;;;;;;15.93;5.70;;;18.20;96.90;;;;;;5016194;28;20183;-92
2022/04/14 19:20:47;;;;;;;11.63;5.60;;;18.30;97.40;;;;;;5004973;28;20188;-96
2022/04/14 19:23:13;;;;;;;10.40;5.30;;;18.30;97.00;;;;;;5008412;28;20227;-96
2022/04/14 19:25:38;;;;;;;11.70;6.10;;;18.30;97.00;;;;;;5003627;28;20199;-96
2022/04/14 19:28:06;;;;;;;12.83;5.73;;;18.20;97.00;;;;;;5004692;28;20184;-96
2022/04/14 19:30:37;;;;;;;11.77;5.90;;;18.20;97.00;;;;;;5002946;28;20567;-96
2022/04/14 19:33:03;;;;;;;11.30;5.33;;;18.20;97.30;;;;;;5003116;28;20187;-95
2022/04/14 19:35:29;;;;;;;11.73;5.97;;;18.00;97.60;;;;;;5003075;28;20228;-96
2022/04/14 19:37:58;;;;;;;9.47;5.43;;;18.00;97.70;;;;;;5001921;28;20174;-96
2022/04/14 19:40:24;;;;;;;10.93;5.10;;;17.90;97.90;;;;;;5003064;28;20616;-95
2022/04/14 19:42:52;;;;;;;12.50;6.13;;;17.80;98.00;;;;;;5002327;28;20166;-94
2022/04/14 19:45:17;;;;;;;11.27;6.23;;;17.70;98.40;;;;;;5002476;28;20191;-96
2022/04/14 19:47:46;;;;;;;11.93;5.57;;;17.60;98.90;;;;;;5002602;28;20691;-96
2022/04/14 19:50:12;;;;;;;10.13;5.50;;;17.60;98.70;;;;;;5005947;28;20171;-95
2022/04/14 19:52:41;;;;;;;15.27;6.17;;;17.60;98.90;;;;;;5005540;28;20261;-96
2022/04/14 19:55:13;;;;;;;11.60;5.90;;;17.50;99.50;;;;;;5012435;28;20154;-96
2022/04/14 19:57:54;;;;;;;9.63;6.10;;;17.60;99.00;;;;;;5029520;28;20160;-95
2022/04/14 20:00:20;;;;;;;17.20;7.10;;;17.50;99.50;;;;;;5014757;28;20176;-94
2022/04/14 20:02:51;;;;;;;12.80;6.30;;;17.60;99.40;;;;;;5015626;28;20183;-92
2022/04/14 20:05:19;;;;;;;12.13;6.50;;;17.60;99.40;;;;;;5016847;28;20545;-96
2022/04/14 20:08:29;;;;;;;14.83;8.37;;;17.60;99.40;;;;;;5010993;28;20194;-95
2022/04/14 20:11:04;;;;;;;12.97;7.67;;;17.50;99.50;;;;;;5038511;28;20198;-91
2022/04/14 20:13:33;;;;;;;11.63;7.03;;;17.60;99.80;;;;;;5014558;28;20219;-94
2022/04/14 20:16:02;;;;;;;14.60;6.50;;;17.60;99.80;;;;;;4995620;28;20201;-96
2022/04/14 20:18:28;;;;;;;12.50;7.40;;;17.40;99.90;;;;;;5020754;28;20180;-96
2022/04/14 20:21:08;;;;;;;16.10;9.53;;;17.30;99.90;;;;;;5014517;28;20190;-94
2022/04/14 20:23:40;;;;;;;17.87;9.93;;;17.20;99.90;;;;;;5014234;28;20213;-90
2022/04/14 20:26:15;;;;;;;17.63;10.57;;;17.10;99.90;;;;;;5020095;28;20221;-91
2022/04/14 20:28:41;;;;;;;38.50;18.10;;;17.10;99.90;;;;;;5034144;28;20181;-95
2022/04/14 20:31:12;;;;;;;22.37;14.20;;;17.10;99.90;;;;;;5038990;28;20210;-96
2022/04/14 20:33:39;;;;;;;24.53;14.23;;;17.00;99.90;;;;;;5005436;28;20183;-96
2022/04/14 20:36:07;;;;;;;15.83;9.97;;;17.00;99.90;;;;;;5000349;28;20223;-95
2022/04/14 20:38:36;;;;;;;16.73;10.00;;;16.90;99.90;;;;;;4998410;28;20172;-96
2022/04/14 20:41:07;;;;;;;18.47;10.93;;;17.00;99.90;;;;;;4998606;28;20147;-94
2022/04/14 20:43:34;;;;;;;18.77;9.30;;;17.20;99.90;;;;;;4994232;28;20182;-96
2022/04/14 20:46:03;;;;;;;15.80;9.47;;;17.10;99.90;;;;;;5042402;28;20259;-89
2022/04/14 20:48:31;;;;;;;14.53;8.07;;;17.00;99.90;;;;;;5019100;28;20190;-95
2022/04/14 20:50:58;;;;;;;14.83;9.03;;;16.90;99.90;;;;;;5015607;28;20161;-89
2022/04/14 20:53:31;;;;;;;18.30;8.80;;;17.00;99.90;;;;;;4996113;28;20267;-96
2022/04/14 20:56:02;;;;;;;19.00;9.40;;;17.30;99.90;;;;;;5004223;28;20261;-92
2022/04/14 20:58:36;;;;;;;15.07;8.20;;;17.10;99.90;;;;;;5002917;28;20189;-91
2022/04/14 21:01:02;;;;;;;15.27;7.90;;;16.90;99.90;;;;;;5000725;28;20198;-95
2022/04/14 21:03:28;;;;;;;15.37;8.57;;;16.60;99.90;;;;;;5000081;28;20173;-95